Time;durP1;ratioP1;P1;durP2;ratioP2;P2;SDS_P1;SDS_P2;PMS_P1;PMS_P2;Temp;Humidity;BMP_temperature;BMP_pressure;BME280_temperature;BME280_humidity;BME280_pressure;Samples;Min_cycle;Max_cycle;Signal;HPM_P1;HPM_P2
2023/09/08 00:02:26;;;;;;;24.92;23.02;;;17.00;99.90;;;;;;4975622;28;20042;-74
2023/09/08 00:04:53;;;;;;;25.10;23.08;;;17.00;99.90;;;;;;4973989;28;20474;-73
2023/09/08 00:07:20;;;;;;;25.42;23.33;;;16.90;99.90;;;;;;4961425;28;20042;-73
2023/09/08 00:09:48;;;;;;;25.30;23.08;;;17.00;99.90;;;;;;4975804;28;20724;-74
2023/09/08 00:12:14;;;;;;;25.00;22.85;;;16.90;99.90;;;;;;4986868;28;20042;-73
2023/09/08 00:14:41;;;;;;;24.58;22.58;;;16.80;99.90;;;;;;4954395;28;20030;-73
2023/09/08 00:17:08;;;;;;;24.67;22.67;;;16.80;99.90;;;;;;4961407;28;20092;-74
2023/09/08 00:19:35;;;;;;;23.38;21.80;;;16.80;99.90;;;;;;4962044;28;20074;-74
2023/09/08 00:22:05;;;;;;;26.27;24.25;;;16.70;99.90;;;;;;4983347;28;20042;-73
2023/09/08 00:24:33;;;;;;;25.15;23.15;;;16.60;99.90;;;;;;4955948;28;20061;-74
2023/09/08 00:27:00;;;;;;;25.98;23.63;;;16.70;99.90;;;;;;4970977;28;20058;-74
2023/09/08 00:29:26;;;;;;;25.88;23.75;;;16.60;99.90;;;;;;4954320;28;20053;-73
2023/09/08 00:31:53;;;;;;;25.10;23.20;;;16.70;99.90;;;;;;4975803;28;20041;-73
2023/09/08 00:34:20;;;;;;;24.50;22.38;;;16.70;99.90;;;;;;4960796;28;20038;-74
2023/09/08 00:36:47;;;;;;;24.95;23.05;;;16.70;99.90;;;;;;4974589;28;20050;-73
2023/09/08 00:39:17;;;;;;;24.00;22.20;;;16.60;99.90;;;;;;4975233;28;20052;-73
2023/09/08 00:41:43;;;;;;;24.42;22.50;;;16.70;99.90;;;;;;4959528;28;20063;-75
2023/09/08 00:44:11;;;;;;;23.52;21.63;;;16.80;99.90;;;;;;4975408;28;20245;-74
2023/09/08 00:46:38;;;;;;;24.42;22.52;;;16.90;99.90;;;;;;4979637;28;20054;-73
2023/09/08 00:49:06;;;;;;;24.60;22.70;;;17.00;99.90;;;;;;4938359;28;20053;-74
2023/09/08 00:51:34;;;;;;;24.38;22.58;;;17.10;99.90;;;;;;4953070;28;20134;-75
2023/09/08 00:54:01;;;;;;;23.83;22.20;;;17.00;99.90;;;;;;4969808;28;20030;-75
2023/09/08 00:56:29;;;;;;;24.17;22.25;;;17.00;99.90;;;;;;4959687;28;20155;-74
2023/09/08 00:58:56;;;;;;;23.15;21.45;;;17.00;99.90;;;;;;4951273;28;20490;-74
2023/09/08 01:01:23;;;;;;;25.02;22.88;;;17.20;99.90;;;;;;4961074;28;20046;-72
2023/09/08 01:03:50;;;;;;;23.23;21.45;;;17.20;99.90;;;;;;4989329;28;20073;-74
2023/09/08 01:06:18;;;;;;;23.60;21.83;;;17.40;99.90;;;;;;4961000;28;20251;-74
2023/09/08 01:08:45;;;;;;;22.80;21.25;;;17.60;99.90;;;;;;4965997;28;20099;-72
2023/09/08 01:11:12;;;;;;;24.00;22.20;;;17.70;99.90;;;;;;4981969;28;20511;-72
2023/09/08 01:13:39;;;;;;;23.17;21.58;;;18.00;99.90;;;;;;5029270;28;20050;-74
2023/09/08 01:16:07;;;;;;;25.27;22.80;;;18.30;99.90;;;;;;4979995;28;20042;-74
2023/09/08 01:18:34;;;;;;;23.10;21.50;;;18.40;99.90;;;;;;4962630;28;20043;-73
2023/09/08 01:21:31;;;;;;;24.10;22.20;;;18.50;99.90;;;;;;4987162;28;20113;-73
2023/09/08 01:24:10;;;;;;;22.98;21.48;;;18.70;99.90;;;;;;5055721;28;20058;-72
2023/09/08 01:26:41;;;;;;;23.75;21.92;;;18.80;99.90;;;;;;4995209;28;20050;-73
2023/09/08 01:29:10;;;;;;;23.90;22.02;;;18.90;99.90;;;;;;4984625;28;20614;-72
2023/09/08 01:31:38;;;;;;;24.08;22.33;;;18.90;99.90;;;;;;4960362;28;20044;-74
2023/09/08 01:34:06;;;;;;;22.92;21.20;;;19.00;99.90;;;;;;4962329;28;20515;-74
2023/09/08 01:36:34;;;;;;;23.73;21.90;;;19.10;99.90;;;;;;4979276;28;20129;-75
2023/09/08 01:39:02;;;;;;;23.10;21.40;;;19.10;99.90;;;;;;4980079;28;20046;-74
2023/09/08 01:41:31;;;;;;;23.38;21.63;;;19.10;99.90;;;;;;4958786;28;20041;-74
2023/09/08 01:43:58;;;;;;;23.50;21.88;;;19.10;99.90;;;;;;4964554;28;20139;-75
2023/09/08 01:46:25;;;;;;;23.70;22.00;;;19.10;99.90;;;;;;4974807;28;20045;-74
2023/09/08 01:48:52;;;;;;;23.85;22.05;;;19.10;99.90;;;;;;4966614;28;20509;-74
2023/09/08 01:51:19;;;;;;;24.17;22.17;;;19.10;99.90;;;;;;4959225;28;21711;-74
2023/09/08 01:53:45;;;;;;;23.30;21.65;;;19.20;99.90;;;;;;4964635;28;20114;-74
2023/09/08 01:56:12;;;;;;;24.13;22.38;;;19.10;99.90;;;;;;4970551;28;20043;-74
2023/09/08 01:58:39;;;;;;;24.67;22.75;;;19.20;99.90;;;;;;4965790;28;20070;-74
2023/09/08 02:01:06;;;;;;;24.00;22.33;;;19.20;99.90;;;;;;4973973;28;20038;-75
2023/09/08 02:03:34;;;;;;;23.90;22.13;;;19.20;99.90;;;;;;4967885;28;20042;-75
2023/09/08 02:06:01;;;;;;;24.35;22.55;;;19.20;99.90;;;;;;4976604;28;20160;-73
2023/09/08 02:08:28;;;;;;;23.58;21.77;;;19.10;99.90;;;;;;4962630;28;20487;-74
2023/09/08 02:10:54;;;;;;;24.02;22.45;;;19.10;99.90;;;;;;4968900;28;20061;-74
2023/09/08 02:13:22;;;;;;;23.40;21.73;;;19.10;99.90;;;;;;5022655;28;20048;-75
2023/09/08 02:15:48;;;;;;;24.45;22.50;;;19.00;99.90;;;;;;4981959;28;20054;-75
2023/09/08 02:18:15;;;;;;;24.75;22.98;;;19.00;99.90;;;;;;4958618;28;20054;-75
2023/09/08 02:20:43;;;;;;;24.67;22.98;;;18.90;99.90;;;;;;4993560;28;20049;-73
2023/09/08 02:23:09;;;;;;;24.30;22.60;;;18.90;99.90;;;;;;4953162;28;20058;-75
2023/09/08 02:25:37;;;;;;;24.55;22.65;;;18.80;99.90;;;;;;4964802;28;20050;-74
2023/09/08 02:28:04;;;;;;;24.80;22.90;;;18.70;99.90;;;;;;4969003;28;20519;-74
2023/09/08 02:30:32;;;;;;;25.42;23.13;;;18.60;99.90;;;;;;4983734;28;20059;-75
2023/09/08 02:33:00;;;;;;;23.95;22.33;;;18.60;99.90;;;;;;4966854;28;20458;-74
2023/09/08 02:35:27;;;;;;;24.90;23.13;;;18.60;99.90;;;;;;5040884;28;20050;-74
2023/09/08 02:37:56;;;;;;;25.02;23.10;;;18.50;99.90;;;;;;4946020;28;20127;-73
2023/09/08 02:40:25;;;;;;;24.85;23.10;;;18.50;99.90;;;;;;4966485;28;20062;-73
2023/09/08 02:42:51;;;;;;;24.38;22.67;;;18.40;99.90;;;;;;4972895;28;20372;-74
2023/09/08 02:45:18;;;;;;;24.95;22.80;;;18.30;99.90;;;;;;4957746;28;20062;-73
2023/09/08 02:47:46;;;;;;;25.10;23.20;;;18.30;99.90;;;;;;4972678;28;20070;-74
2023/09/08 02:50:13;;;;;;;24.25;22.33;;;18.30;99.90;;;;;;4983584;28;20045;-76
2023/09/08 02:52:40;;;;;;;25.33;23.42;;;18.30;99.90;;;;;;4995672;28;21219;-73
2023/09/08 02:55:06;;;;;;;24.90;23.17;;;18.30;99.90;;;;;;4970633;28;20049;-75
2023/09/08 02:57:33;;;;;;;25.90;23.67;;;18.40;99.90;;;;;;4974149;28;20042;-74
2023/09/08 03:00:00;;;;;;;24.08;22.48;;;18.30;99.90;;;;;;4972600;28;20403;-75
2023/09/08 03:02:27;;;;;;;26.10;24.10;;;18.30;99.90;;;;;;4981076;28;20074;-75
2023/09/08 03:04:55;;;;;;;26.80;24.90;;;18.10;99.90;;;;;;4963022;28;20042;-75
2023/09/08 03:07:22;;;;;;;27.52;25.17;;;17.90;99.90;;;;;;4959268;28;20050;-74
2023/09/08 03:09:49;;;;;;;25.73;23.75;;;17.70;99.90;;;;;;4958067;28;20050;-75
2023/09/08 03:12:16;;;;;;;26.92;25.00;;;17.30;99.90;;;;;;4973246;28;20041;-74
2023/09/08 03:14:43;;;;;;;27.83;25.30;;;17.10;99.90;;;;;;4979653;28;20072;-74
2023/09/08 03:17:10;;;;;;;26.27;24.25;;;16.90;99.90;;;;;;4964467;28;20058;-75
2023/09/08 03:19:37;;;;;;;25.75;23.83;;;16.80;99.90;;;;;;4967265;28;20780;-75
2023/09/08 03:22:06;;;;;;;25.95;23.98;;;16.70;99.90;;;;;;4970586;28;20133;-73
2023/09/08 03:24:32;;;;;;;25.73;23.73;;;16.60;99.90;;;;;;4971147;28;20047;-74
2023/09/08 03:27:00;;;;;;;25.30;23.40;;;17.00;99.90;;;;;;4963093;28;20506;-75
2023/09/08 03:29:28;;;;;;;26.17;24.25;;;17.10;99.90;;;;;;4960024;28;20050;-73
2023/09/08 03:31:54;;;;;;;25.75;23.92;;;17.20;99.90;;;;;;4958495;28;20042;-74
2023/09/08 03:34:22;;;;;;;27.70;25.42;;;17.10;99.90;;;;;;4962382;28;20549;-74
2023/09/08 03:36:52;;;;;;;26.35;24.42;;;16.90;99.90;;;;;;4959180;28;20057;-75
2023/09/08 03:39:20;;;;;;;27.58;25.35;;;16.90;99.90;;;;;;4965027;28;20199;-74
2023/09/08 03:41:46;;;;;;;27.00;24.83;;;16.80;99.90;;;;;;4964115;28;20153;-75
2023/09/08 03:44:13;;;;;;;26.90;24.70;;;16.70;99.90;;;;;;4976594;28;20434;-73
2023/09/08 03:46:40;;;;;;;26.35;24.20;;;16.60;99.90;;;;;;4970539;28;20042;-74
2023/09/08 03:49:08;;;;;;;26.15;23.67;;;16.60;99.90;;;;;;4969357;28;20038;-74
2023/09/08 03:51:34;;;;;;;26.08;24.08;;;16.50;99.90;;;;;;4954048;28;20043;-75
2023/09/08 03:54:03;;;;;;;26.10;23.98;;;16.50;99.90;;;;;;4964231;28;20054;-74
2023/09/08 03:56:29;;;;;;;25.75;23.50;;;16.30;99.90;;;;;;4958019;28;20043;-74
2023/09/08 03:58:56;;;;;;;26.25;24.02;;;16.20;99.90;;;;;;4984585;28;20086;-75
2023/09/08 04:01:23;;;;;;;25.77;23.45;;;16.10;99.90;;;;;;4956288;28;20153;-73
2023/09/08 04:03:50;;;;;;;25.15;23.15;;;16.00;99.90;;;;;;4962515;28;20046;-74
2023/09/08 04:06:17;;;;;;;27.05;24.67;;;16.00;99.90;;;;;;4963859;28;20133;-75
2023/09/08 04:08:44;;;;;;;26.58;24.08;;;15.90;99.90;;;;;;4964661;28;20082;-74
2023/09/08 04:11:10;;;;;;;26.38;24.27;;;15.90;99.90;;;;;;4974727;28;20042;-74
2023/09/08 04:13:37;;;;;;;25.80;23.80;;;15.80;99.90;;;;;;4973166;28;20041;-73
2023/09/08 04:16:04;;;;;;;26.45;24.52;;;15.70;99.90;;;;;;4969650;28;20102;-75
2023/09/08 04:18:31;;;;;;;25.77;23.77;;;15.60;99.90;;;;;;4966487;28;20064;-73
2023/09/08 04:20:58;;;;;;;25.65;23.67;;;15.40;99.90;;;;;;4963001;28;20163;-75
2023/09/08 04:23:25;;;;;;;26.27;24.00;;;15.30;99.90;;;;;;4975204;28;20127;-73
2023/09/08 04:25:52;;;;;;;27.83;25.58;;;15.10;99.90;;;;;;4965890;28;20699;-75
2023/09/08 04:28:19;;;;;;;26.42;24.27;;;15.00;99.90;;;;;;4955391;28;20066;-73
2023/09/08 04:30:46;;;;;;;26.33;24.23;;;14.90;99.90;;;;;;4966625;28;20086;-74
2023/09/08 04:33:13;;;;;;;26.00;23.90;;;14.80;99.90;;;;;;4976100;28;20050;-74
2023/09/08 04:35:40;;;;;;;24.63;22.83;;;14.80;99.90;;;;;;4971955;28;20072;-74
2023/09/08 04:38:07;;;;;;;25.95;23.73;;;14.80;99.90;;;;;;4974086;28;20051;-74
2023/09/08 04:40:34;;;;;;;26.40;24.33;;;14.70;99.90;;;;;;4961847;28;20054;-74
2023/09/08 04:43:01;;;;;;;24.55;22.75;;;14.50;99.90;;;;;;4947592;28;20054;-75
2023/09/08 04:45:28;;;;;;;27.05;24.38;;;14.50;99.90;;;;;;4967537;28;20057;-73
2023/09/08 04:47:54;;;;;;;25.42;23.23;;;14.40;99.90;;;;;;4979311;28;20049;-74
2023/09/08 04:50:21;;;;;;;25.75;23.45;;;14.30;99.90;;;;;;4953791;28;20054;-74
2023/09/08 04:52:49;;;;;;;25.23;22.92;;;14.30;99.90;;;;;;4958951;28;20133;-74
2023/09/08 04:55:17;;;;;;;24.50;22.15;;;14.20;99.90;;;;;;4969901;28;20140;-74
2023/09/08 04:57:44;;;;;;;25.88;23.63;;;14.20;99.90;;;;;;4957436;28;20106;-74
2023/09/08 05:00:11;;;;;;;24.02;22.10;;;14.20;99.90;;;;;;5016812;28;20063;-74
2023/09/08 05:02:38;;;;;;;25.75;23.65;;;14.10;99.90;;;;;;4956095;28;20099;-73
2023/09/08 05:05:06;;;;;;;25.95;23.75;;;14.00;99.90;;;;;;4952549;28;20129;-74
2023/09/08 05:07:32;;;;;;;26.17;23.90;;;14.10;99.90;;;;;;4966101;28;20320;-74
2023/09/08 05:10:00;;;;;;;25.95;23.48;;;14.10;99.90;;;;;;4966444;28;20684;-74
2023/09/08 05:12:29;;;;;;;25.10;22.85;;;14.10;99.90;;;;;;4969000;28;20043;-74
2023/09/08 05:15:00;;;;;;;23.85;21.55;;;14.10;99.90;;;;;;4958341;28;20042;-74
2023/09/08 05:17:27;;;;;;;23.58;21.42;;;14.20;99.90;;;;;;4974671;28;20049;-73
2023/09/08 05:19:54;;;;;;;23.70;21.58;;;14.10;99.90;;;;;;4956161;28;20046;-75
2023/09/08 05:22:21;;;;;;;24.48;22.35;;;14.10;99.90;;;;;;4958449;28;20050;-74
2023/09/08 05:24:49;;;;;;;23.90;21.63;;;14.20;99.90;;;;;;4950076;28;20665;-74
2023/09/08 05:27:16;;;;;;;24.67;22.25;;;14.20;99.90;;;;;;4951831;28;20129;-74
2023/09/08 05:29:43;;;;;;;24.27;22.23;;;14.20;99.90;;;;;;4980697;28;20054;-74
2023/09/08 05:32:10;;;;;;;26.13;23.10;;;14.20;99.90;;;;;;4977697;28;20073;-74
2023/09/08 05:34:37;;;;;;;24.92;22.63;;;14.20;99.90;;;;;;4949321;28;20528;-73
2023/09/08 05:37:04;;;;;;;24.63;22.23;;;14.20;99.90;;;;;;4971646;28;20050;-73
2023/09/08 05:39:32;;;;;;;24.50;22.27;;;14.20;99.90;;;;;;4960580;28;20038;-75
2023/09/08 05:41:59;;;;;;;23.27;21.33;;;14.30;99.90;;;;;;4956918;28;20039;-74
2023/09/08 05:44:26;;;;;;;23.35;21.35;;;14.20;99.90;;;;;;4961317;28;20057;-74
2023/09/08 05:46:54;;;;;;;23.80;21.50;;;14.30;99.90;;;;;;4956416;28;20062;-74
2023/09/08 05:49:22;;;;;;;24.25;21.95;;;14.30;99.90;;;;;;4982232;28;20517;-74
2023/09/08 05:51:49;;;;;;;25.55;22.63;;;14.50;99.90;;;;;;5017610;28;20849;-74
2023/09/08 05:54:16;;;;;;;25.65;23.00;;;14.50;99.90;;;;;;4958495;28;20746;-74
2023/09/08 05:56:44;;;;;;;25.83;22.95;;;14.50;99.90;;;;;;4972627;28;20239;-74
2023/09/08 05:59:11;;;;;;;26.42;23.90;;;14.50;99.90;;;;;;4956395;28;20057;-73
2023/09/08 06:01:39;;;;;;;23.25;21.13;;;14.60;99.90;;;;;;4960300;28;20634;-74
2023/09/08 06:04:09;;;;;;;21.67;19.77;;;14.60;99.90;;;;;;4958473;28;20570;-74
2023/09/08 06:06:37;;;;;;;22.77;20.77;;;14.60;99.90;;;;;;4940231;28;20054;-74
2023/09/08 06:09:07;;;;;;;22.83;20.60;;;14.70;99.90;;;;;;4941340;28;20104;-73
2023/09/08 06:11:34;;;;;;;23.77;21.58;;;14.70;99.90;;;;;;4969617;28;20133;-74
2023/09/08 06:14:01;;;;;;;22.35;20.45;;;14.90;99.90;;;;;;4966874;28;20046;-74
2023/09/08 06:16:33;;;;;;;22.80;20.63;;;14.90;99.90;;;;;;4958538;28;20157;-74
2023/09/08 06:19:03;;;;;;;21.23;19.13;;;15.00;99.90;;;;;;4967661;28;20050;-74
2023/09/08 06:21:30;;;;;;;21.45;19.45;;;15.10;99.90;;;;;;4962255;28;20082;-74
2023/09/08 06:23:57;;;;;;;22.33;20.38;;;15.20;99.90;;;;;;4975513;28;20116;-74
2023/09/08 06:26:24;;;;;;;22.13;20.10;;;15.20;99.90;;;;;;4973126;28;20098;-73
2023/09/08 06:28:51;;;;;;;21.30;19.05;;;15.40;99.90;;;;;;4957202;28;20462;-74
2023/09/08 06:31:18;;;;;;;21.27;19.08;;;15.40;99.90;;;;;;4966834;28;20058;-73
2023/09/08 06:33:46;;;;;;;20.25;18.55;;;15.50;99.90;;;;;;4964982;28;20671;-74
2023/09/08 06:36:13;;;;;;;20.92;19.08;;;15.70;99.90;;;;;;4961974;28;20430;-75
2023/09/08 06:38:40;;;;;;;21.00;19.20;;;15.80;99.90;;;;;;4959272;28;20049;-74
2023/09/08 06:41:11;;;;;;;21.67;19.13;;;15.90;99.90;;;;;;4964536;28;20054;-74
2023/09/08 06:43:38;;;;;;;18.98;17.45;;;16.10;99.90;;;;;;4966840;28;20057;-73
2023/09/08 06:46:12;;;;;;;22.17;20.10;;;16.30;99.90;;;;;;4970537;28;20055;-74
2023/09/08 06:48:39;;;;;;;20.38;18.77;;;16.40;99.90;;;;;;4946561;28;20062;-74
2023/09/08 06:51:06;;;;;;;22.00;19.77;;;16.60;99.90;;;;;;4966563;28;20054;-74
2023/09/08 06:53:35;;;;;;;22.25;20.42;;;16.90;99.90;;;;;;4959414;28;20141;-73
2023/09/08 06:56:02;;;;;;;21.58;19.67;;;17.00;99.90;;;;;;4946301;28;20049;-74
2023/09/08 06:58:30;;;;;;;22.20;20.70;;;17.30;99.90;;;;;;4960479;28;20042;-74
2023/09/08 07:00:57;;;;;;;23.63;21.83;;;17.60;99.90;;;;;;4975586;28;20053;-74
2023/09/08 07:03:26;;;;;;;25.42;23.42;;;17.90;99.90;;;;;;4961042;28;20042;-73
2023/09/08 07:05:54;;;;;;;24.70;22.80;;;18.40;99.90;;;;;;4958334;28;20062;-74
2023/09/08 07:08:22;;;;;;;27.70;25.80;;;18.70;99.90;;;;;;4974883;28;20425;-74
2023/09/08 07:10:52;;;;;;;26.52;24.52;;;19.10;99.90;;;;;;4967133;28;20848;-75
2023/09/08 07:13:19;;;;;;;27.70;25.67;;;19.50;99.90;;;;;;4972865;28;20038;-75
2023/09/08 07:15:46;;;;;;;27.38;25.58;;;20.00;99.90;;;;;;4959087;28;20486;-79
2023/09/08 07:18:13;;;;;;;28.00;25.83;;;20.50;99.90;;;;;;4957433;28;20126;-78
2023/09/08 07:20:40;;;;;;;26.75;24.85;;;20.80;99.90;;;;;;4963810;28;20047;-78
2023/09/08 07:23:07;;;;;;;28.73;26.70;;;21.00;99.90;;;;;;4964525;28;20121;-78
2023/09/08 07:25:34;;;;;;;28.30;26.15;;;21.40;99.90;;;;;;4963162;28;20123;-77
2023/09/08 07:28:01;;;;;;;28.85;26.85;;;21.60;99.90;;;;;;4978778;28;20050;-79
2023/09/08 07:30:29;;;;;;;27.35;25.63;;;21.90;99.90;;;;;;4955414;28;20050;-78
2023/09/08 07:32:56;;;;;;;28.83;26.73;;;21.90;99.90;;;;;;4981760;28;21081;-78
2023/09/08 07:35:24;;;;;;;26.52;24.58;;;22.10;99.90;;;;;;4957859;28;20126;-78
2023/09/08 07:37:51;;;;;;;27.05;25.25;;;22.20;99.90;;;;;;4959614;28;20607;-78
2023/09/08 07:40:18;;;;;;;29.10;27.20;;;22.20;99.90;;;;;;4975626;28;20047;-79
2023/09/08 07:42:45;;;;;;;28.90;26.92;;;22.60;99.90;;;;;;5023239;28;20133;-79
2023/09/08 07:45:13;;;;;;;29.73;27.55;;;22.90;99.90;;;;;;4975307;28;20054;-78
2023/09/08 07:47:39;;;;;;;30.15;27.90;;;22.90;99.90;;;;;;4964444;28;20054;-78
2023/09/08 07:50:19;;;;;;;29.10;27.13;;;23.00;99.90;;;;;;4967555;28;20042;-79
2023/09/08 07:52:51;;;;;;;30.35;28.38;;;23.10;99.90;;;;;;4975986;28;20576;-78
2023/09/08 07:55:18;;;;;;;34.03;31.85;;;23.20;99.90;;;;;;4976591;28;20100;-78
2023/09/08 07:57:46;;;;;;;32.22;30.17;;;23.30;99.90;;;;;;5035066;28;20472;-79
2023/09/08 08:00:13;;;;;;;33.03;30.92;;;23.50;99.90;;;;;;4956274;28;20062;-78
2023/09/08 08:02:43;;;;;;;32.75;30.45;;;23.50;99.90;;;;;;4978575;28;20042;-77
2023/09/08 08:05:10;;;;;;;35.95;33.55;;;23.60;99.90;;;;;;4962401;28;20074;-79
2023/09/08 08:07:39;;;;;;;33.28;31.15;;;23.70;99.90;;;;;;4962111;28;20050;-79
2023/09/08 08:10:06;;;;;;;37.53;34.72;;;24.00;99.90;;;;;;4978432;28;20486;-78
2023/09/08 08:12:33;;;;;;;37.08;34.58;;;24.30;99.90;;;;;;5023617;28;20043;-79
2023/09/08 08:15:00;;;;;;;37.15;34.63;;;24.50;99.90;;;;;;4943912;28;20046;-78
2023/09/08 08:17:29;;;;;;;36.70;34.15;;;24.60;99.90;;;;;;4981870;28;20046;-78
2023/09/08 08:19:58;;;;;;;37.17;34.78;;;24.70;99.90;;;;;;4982672;28;20065;-77
2023/09/08 08:22:26;;;;;;;39.55;36.30;;;24.70;99.90;;;;;;4968634;28;20536;-78
2023/09/08 08:24:52;;;;;;;36.10;33.60;;;24.70;99.90;;;;;;4980793;28;20058;-78
2023/09/08 08:27:19;;;;;;;36.90;34.53;;;24.70;99.90;;;;;;4960555;28;20057;-79
2023/09/08 08:29:46;;;;;;;37.70;35.20;;;24.70;99.90;;;;;;4968744;28;20049;-77
2023/09/08 08:32:13;;;;;;;37.28;35.03;;;24.90;99.90;;;;;;5032798;28;20074;-78
2023/09/08 08:34:39;;;;;;;37.88;35.20;;;25.00;99.90;;;;;;4960836;28;20110;-79
2023/09/08 08:37:07;;;;;;;36.97;34.42;;;25.00;99.90;;;;;;4957774;28;20125;-79
2023/09/08 08:39:34;;;;;;;36.78;34.38;;;25.10;99.90;;;;;;4967473;28;20034;-77
2023/09/08 08:42:09;;;;;;;39.70;37.00;;;25.10;99.90;;;;;;4944664;28;20167;-80
2023/09/08 08:44:38;;;;;;;38.80;36.35;;;25.10;99.90;;;;;;4974570;28;20066;-80
2023/09/08 08:47:07;;;;;;;38.33;36.03;;;24.90;99.90;;;;;;4958900;28;20142;-78
2023/09/08 08:49:34;;;;;;;37.60;35.30;;;25.20;99.90;;;;;;4970850;28;20048;-79
2023/09/08 08:52:06;;;;;;;37.50;35.25;;;25.70;99.90;;;;;;4960986;28;20134;-79
2023/09/08 08:54:37;;;;;;;38.00;35.45;;;25.50;99.90;;;;;;4965250;28;20048;-79
2023/09/08 08:57:04;;;;;;;38.08;35.25;;;25.60;99.90;;;;;;4979628;28;20067;-79
2023/09/08 08:59:31;;;;;;;38.22;35.80;;;25.80;99.90;;;;;;4946473;28;20141;-80
2023/09/08 09:01:59;;;;;;;39.10;36.55;;;25.90;99.90;;;;;;4968695;28;20038;-78
2023/09/08 09:04:26;;;;;;;37.95;35.55;;;26.00;99.90;;;;;;4975840;28;21816;-79
2023/09/08 09:06:53;;;;;;;38.78;36.38;;;26.30;99.90;;;;;;4979282;28;20052;-79
2023/09/08 09:09:20;;;;;;;38.38;35.97;;;26.50;99.90;;;;;;4971959;28;20054;-78
2023/09/08 09:11:50;;;;;;;40.47;37.88;;;26.10;99.90;;;;;;4970025;28;20039;-78
2023/09/08 09:14:18;;;;;;;39.58;36.97;;;25.70;99.90;;;;;;4964051;28;20226;-78
2023/09/08 09:16:47;;;;;;;40.10;37.60;;;25.90;99.90;;;;;;4969540;28;20041;-80
2023/09/08 09:19:25;;;;;;;41.10;38.25;;;26.00;99.90;;;;;;5027313;28;20066;-78
2023/09/08 09:21:54;;;;;;;42.22;39.50;;;26.30;99.90;;;;;;4962678;28;20510;-79
2023/09/08 09:24:33;;;;;;;41.40;38.90;;;26.50;99.90;;;;;;4970937;28;20059;-78
2023/09/08 09:27:01;;;;;;;41.50;39.08;;;26.70;99.90;;;;;;4971618;28;20047;-78
2023/09/08 09:29:28;;;;;;;43.13;40.28;;;26.30;99.90;;;;;;4978629;28;20054;-78
2023/09/08 09:31:57;;;;;;;40.90;38.25;;;25.90;99.90;;;;;;4984993;28;20050;-78
2023/09/08 09:34:25;;;;;;;40.85;38.20;;;26.00;99.90;;;;;;4985630;28;20050;-79
2023/09/08 09:36:51;;;;;;;42.88;39.45;;;26.10;99.90;;;;;;4978445;28;20039;-78
2023/09/08 09:39:26;;;;;;;41.05;38.55;;;26.40;99.90;;;;;;4971113;28;20533;-79
2023/09/08 09:41:57;;;;;;;41.58;39.08;;;26.30;99.90;;;;;;5042163;28;20047;-78
2023/09/08 09:44:24;;;;;;;40.88;37.97;;;26.40;99.90;;;;;;4959266;28;20419;-79
2023/09/08 09:46:52;;;;;;;41.92;39.25;;;26.30;99.90;;;;;;4945370;28;20049;-77
2023/09/08 09:49:20;;;;;;;39.25;36.85;;;25.90;99.90;;;;;;4968442;28;20104;-77
2023/09/08 09:51:49;;;;;;;39.78;37.22;;;26.50;99.90;;;;;;4978034;28;20132;-78
2023/09/08 09:54:16;;;;;;;39.97;37.40;;;26.70;99.90;;;;;;4959895;28;20050;-78
2023/09/08 09:56:44;;;;;;;41.05;38.50;;;26.40;99.90;;;;;;4973781;28;20042;-78
2023/09/08 09:59:13;;;;;;;41.00;38.33;;;26.60;99.90;;;;;;4952810;28;20081;-78
2023/09/08 10:01:42;;;;;;;40.45;37.95;;;26.80;99.90;;;;;;4978175;28;20038;-78
2023/09/08 10:04:10;;;;;;;40.72;38.13;;;27.10;99.90;;;;;;4974079;28;20075;-78
2023/09/08 10:06:39;;;;;;;40.30;37.80;;;27.30;99.90;;;;;;4984030;28;20042;-78
2023/09/08 10:09:08;;;;;;;41.55;38.95;;;27.20;99.90;;;;;;4953368;28;20701;-78
2023/09/08 10:11:44;;;;;;;41.35;38.85;;;27.40;99.90;;;;;;4979522;28;20053;-78
2023/09/08 10:14:12;;;;;;;40.72;38.13;;;27.60;99.90;;;;;;4963311;28;20046;-78
2023/09/08 10:16:43;;;;;;;41.60;38.78;;;27.30;99.90;;;;;;4960953;28;20046;-77
2023/09/08 10:19:10;;;;;;;40.65;38.17;;;27.40;99.90;;;;;;5029154;28;20047;-78
2023/09/08 10:21:44;;;;;;;41.40;38.60;;;27.70;99.90;;;;;;4979813;28;20121;-78
2023/09/08 10:24:18;;;;;;;40.47;37.53;;;27.80;99.90;;;;;;4964873;28;20081;-77
2023/09/08 10:26:55;;;;;;;42.45;39.85;;;27.60;99.90;;;;;;5039996;28;20042;-78
2023/09/08 10:29:23;;;;;;;41.08;38.30;;;28.00;99.90;;;;;;4965845;28;20092;-77
2023/09/08 10:31:51;;;;;;;41.53;39.10;;;28.00;99.90;;;;;;4965197;28;20081;-74
2023/09/08 10:34:19;;;;;;;41.47;38.70;;;28.10;99.90;;;;;;4974131;28;20042;-75
2023/09/08 10:36:52;;;;;;;41.67;39.03;;;28.30;99.90;;;;;;4977262;28;20360;-72
2023/09/08 10:39:41;;;;;;;41.90;39.33;;;28.30;99.90;;;;;;4979343;28;20042;-72
2023/09/08 10:42:18;;;;;;;42.80;40.08;;;28.50;99.90;;;;;;4978166;28;20054;-72
2023/09/08 10:44:54;;;;;;;42.42;39.72;;;28.60;99.90;;;;;;4954202;28;20042;-73
2023/09/08 10:47:26;;;;;;;41.58;38.97;;;28.60;99.90;;;;;;4982089;28;20104;-72
2023/09/08 10:49:56;;;;;;;43.13;40.53;;;28.50;99.90;;;;;;4954863;28;20103;-73
2023/09/08 10:52:26;;;;;;;42.78;40.10;;;28.10;99.90;;;;;;4952387;28;20054;-73
2023/09/08 10:54:55;;;;;;;42.80;40.22;;;27.90;99.90;;;;;;4972392;28;20123;-73
2023/09/08 10:57:24;;;;;;;41.78;39.28;;;28.10;99.90;;;;;;4965433;28;20073;-73
2023/09/08 10:59:56;;;;;;;41.97;39.22;;;28.40;99.90;;;;;;4959744;28;20054;-72
2023/09/08 11:02:35;;;;;;;41.70;39.08;;;28.60;99.90;;;;;;4943530;28;20654;-73
2023/09/08 11:05:04;;;;;;;42.00;39.30;;;28.40;99.90;;;;;;4971096;28;21370;-72
2023/09/08 11:07:32;;;;;;;39.22;36.47;;;28.10;99.90;;;;;;4964072;28;20038;-72
2023/09/08 11:10:00;;;;;;;41.85;39.25;;;28.00;99.90;;;;;;4987572;28;20501;-73
2023/09/08 11:12:28;;;;;;;42.97;40.22;;;27.70;99.90;;;;;;4955113;28;20042;-72
2023/09/08 11:14:55;;;;;;;42.70;40.20;;;28.00;99.90;;;;;;4955869;28;20031;-72
2023/09/08 11:17:25;;;;;;;43.05;40.47;;;28.00;99.90;;;;;;4971004;28;20608;-73
2023/09/08 11:19:52;;;;;;;44.60;42.10;;;28.10;99.90;;;;;;4958178;28;20053;-72
2023/09/08 11:22:25;;;;;;;42.03;39.33;;;28.30;99.90;;;;;;4998894;28;20045;-73
2023/09/08 11:24:53;;;;;;;44.00;41.40;;;28.60;99.90;;;;;;4972997;28;20073;-73
2023/09/08 11:27:21;;;;;;;42.25;39.50;;;28.60;99.90;;;;;;4965573;28;20062;-73
2023/09/08 11:29:48;;;;;;;41.97;39.20;;;28.60;99.90;;;;;;4971818;28;20118;-72
2023/09/08 11:32:15;;;;;;;44.15;41.35;;;28.80;99.90;;;;;;4979649;28;20050;-72
2023/09/08 11:34:42;;;;;;;43.95;41.13;;;28.60;99.90;;;;;;4948529;28;20043;-71
2023/09/08 11:37:15;;;;;;;43.53;40.80;;;28.70;99.90;;;;;;4983286;28;20158;-71
2023/09/08 11:39:44;;;;;;;42.80;40.27;;;28.80;99.90;;;;;;4973730;28;20038;-71
2023/09/08 11:42:16;;;;;;;43.88;41.38;;;28.80;99.90;;;;;;4954433;28;20051;-73
2023/09/08 11:44:43;;;;;;;43.22;40.42;;;28.40;99.90;;;;;;4976809;28;20058;-74
2023/09/08 11:47:15;;;;;;;42.55;39.95;;;28.30;99.90;;;;;;4957585;28;20054;-73
2023/09/08 11:49:45;;;;;;;44.17;41.30;;;28.10;99.90;;;;;;4963088;28;20046;-74
2023/09/08 11:52:12;;;;;;;43.47;40.88;;;28.20;99.90;;;;;;4962251;28;20135;-74
2023/09/08 11:54:41;;;;;;;41.70;39.22;;;28.20;99.90;;;;;;4975604;28;20069;-73
2023/09/08 11:57:32;;;;;;;43.45;40.85;;;28.50;99.90;;;;;;4964349;28;20187;-75
2023/09/08 12:00:00;;;;;;;43.08;40.38;;;28.60;99.90;;;;;;4954975;28;20042;-73
2023/09/08 12:02:35;;;;;;;44.13;41.38;;;28.50;99.90;;;;;;4976027;28;20539;-73
2023/09/08 12:05:03;;;;;;;43.20;40.40;;;28.40;99.90;;;;;;4971816;28;20480;-73
2023/09/08 12:07:30;;;;;;;42.25;39.38;;;28.20;99.90;;;;;;4972399;28;20049;-73
2023/09/08 12:09:58;;;;;;;42.40;39.70;;;28.10;99.90;;;;;;4980297;28;20144;-73
2023/09/08 12:12:29;;;;;;;42.08;39.55;;;28.40;99.90;;;;;;4958663;28;20059;-73
2023/09/08 12:14:56;;;;;;;44.17;41.47;;;28.50;99.90;;;;;;4958731;28;20100;-73
2023/09/08 12:17:25;;;;;;;42.63;39.83;;;28.60;99.90;;;;;;4971967;28;20038;-74
2023/09/08 12:19:55;;;;;;;43.97;41.15;;;28.30;99.90;;;;;;4963575;28;20107;-73
2023/09/08 12:22:22;;;;;;;45.30;42.55;;;28.40;99.90;;;;;;4975235;28;20051;-73
2023/09/08 12:25:02;;;;;;;45.70;43.10;;;28.00;99.90;;;;;;4975031;28;20044;-73
2023/09/08 12:27:29;;;;;;;42.83;40.15;;;28.10;99.90;;;;;;4965513;28;20104;-73
2023/09/08 12:29:58;;;;;;;45.10;42.42;;;28.40;99.90;;;;;;4964852;28;20058;-73
2023/09/08 12:32:26;;;;;;;42.30;39.20;;;28.50;99.90;;;;;;4972228;28;20480;-73
2023/09/08 12:35:16;;;;;;;43.10;40.30;;;28.50;99.90;;;;;;4962161;28;20067;-72